»·PEaware :: SWA3697 KSAN-KLAS

SWA3697 :: KSAN-KLAS

FLIGHT INFORMATION

Flight Status: Arrived
Operator:
Southwest Airlines
More flights by this operator :: More flights under this callsign
Pilot: Daniel D. (10930)
Aircraft: BOEING 737-800
(B738)
More flights by this aircraft type
Origin: KSAN San Diego Intl-Lindbergh
United States
Destination: KLAS McCarran Intl
United States
More flights between these airports :: More routes between these airports
Route: PADRZ2 CHKNN SEBBY YELAH MISEN KEPEC6
File this flight plan on PilotEdge
Remarks:
Altitude:
(Current/Filed)
33,000ft
Speed:
(Current/Filed)
460kts
Departed: 21-Mar-20 03:49 PM
Arrived: 21-Mar-20 04:37 PM
Distance/Time
Traveled:
225nm/0:47
Distance/Time
To Go:
Arrived

Flight Plot

Page will automatically refresh every two minutes.

Flight plan parsing failed; only flown route is shown


Map Options




Map Legend


Flown Route
Filed Route
Departure Airport
Arrival Airport
Navaid (VOR, NDB)
Fix

Horizontal Profiles

Position Reports

Time Latitude Longitude Heading Altitude Ground
Speed
21-Mar-20 15:23 32.732495 -117.195420 312 23ft 0kts
21-Mar-20 15:24 32.732495 -117.195420 312 23ft 0kts
21-Mar-20 15:25 32.732495 -117.195420 312 23ft 0kts
21-Mar-20 15:26 32.732495 -117.195420 312 23ft 0kts
21-Mar-20 15:27 32.732495 -117.195420 312 23ft 0kts
21-Mar-20 15:28 32.732495 -117.195420 312 23ft 0kts
21-Mar-20 15:29 32.732495 -117.195420 312 23ft 0kts
21-Mar-20 15:30 32.732495 -117.195420 312 23ft 0kts
21-Mar-20 15:31 32.732495 -117.195420 312 23ft 0kts
21-Mar-20 15:32 32.732495 -117.195420 312 23ft 0kts
21-Mar-20 15:33 32.732495 -117.195420 312 23ft 0kts
21-Mar-20 15:34 32.732495 -117.195419 312 23ft 0kts
21-Mar-20 15:35 32.732478 -117.195398 313 23ft 2kts
21-Mar-20 15:36 32.732094 -117.194901 332 23ft 1kts
21-Mar-20 15:37 32.731965 -117.194923 20 23ft 0kts
21-Mar-20 15:38 32.731965 -117.194923 20 23ft 0kts
21-Mar-20 15:39 32.731965 -117.194923 20 23ft 0kts
21-Mar-20 15:40 32.731975 -117.194919 20 23ft 1kts
21-Mar-20 15:41 32.732560 -117.194575 27 23ft 0kts
21-Mar-20 15:42 32.732705 -117.190467 105 24ft 31kts
21-Mar-20 15:43 32.730521 -117.181456 105 22ft 25kts
21-Mar-20 15:44 32.729496 -117.176998 91 24ft 0kts
21-Mar-20 15:45 32.729504 -117.176852 83 24ft 0kts
21-Mar-20 15:46 32.729504 -117.176852 83 24ft 0kts
21-Mar-20 15:47 32.729504 -117.176852 83 24ft 0kts
21-Mar-20 15:48 32.731150 -117.179774 286 23ft 82kts
21-Mar-20 15:49 32.748654 -117.226600 299 2161ft 194kts
21-Mar-20 15:50 32.785238 -117.291542 301 5203ft 264kts
21-Mar-20 15:51 32.829187 -117.364472 307 9207ft 282kts
21-Mar-20 15:52 32.880727 -117.444159 305 11868ft 334kts
21-Mar-20 15:53 32.938159 -117.533375 304 14922ft 349kts
21-Mar-20 15:54 32.995983 -117.623630 303 15508ft 346kts
21-Mar-20 15:55 33.053900 -117.713774 303 18902ft 346kts
21-Mar-20 15:56 33.128439 -117.789779 327 21622ft 375kts
21-Mar-20 15:57 33.237636 -117.806121 350 23923ft 411kts
21-Mar-20 15:58 33.353694 -117.804909 351 26033ft 423kts
21-Mar-20 15:59 33.471958 -117.801352 351 27841ft 435kts
21-Mar-20 16:00 33.590454 -117.796953 351 29286ft 442kts
21-Mar-20 16:01 33.712395 -117.792092 350 30973ft 438kts
21-Mar-20 16:02 33.832996 -117.787192 349 32642ft 432kts
21-Mar-20 16:03 33.953094 -117.782440 349 33149ft 435kts
21-Mar-20 16:04 34.074249 -117.758098 18 33164ft 486kts
21-Mar-20 16:05 34.176953 -117.641251 40 33149ft 527kts
21-Mar-20 16:06 34.272551 -117.506998 42 33146ft 525kts
21-Mar-20 16:07 34.366516 -117.370936 43 33152ft 525kts
21-Mar-20 16:09 34.459234 -117.234992 44 33133ft 523kts
21-Mar-20 16:10 34.551354 -117.098818 44 33137ft 522kts
21-Mar-20 16:11 34.639659 -116.967578 44 33154ft 499kts
21-Mar-20 16:12 34.728079 -116.835879 44 33111ft 502kts
21-Mar-20 16:13 34.817547 -116.702382 43 29741ft 508kts
21-Mar-20 16:14 34.914617 -116.588083 33 27497ft 466kts
21-Mar-20 16:15 35.011726 -116.492462 33 25669ft 434kts
21-Mar-20 16:16 35.104065 -116.399495 40 24174ft 439kts
21-Mar-20 16:17 35.190405 -116.293212 42 24134ft 440kts
21-Mar-20 16:18 35.275988 -116.186299 43 24135ft 439kts
21-Mar-20 16:19 35.361500 -116.078916 43 24134ft 438kts
21-Mar-20 16:20 35.445942 -115.972423 43 22870ft 434kts
21-Mar-20 16:21 35.530948 -115.864898 44 18749ft 444kts
21-Mar-20 16:22 35.614246 -115.758855 44 16198ft 398kts
21-Mar-20 16:22 35.674451 -115.681996 44 14921ft 369kts
21-Mar-20 16:24 35.762618 -115.590918 22 13054ft 332kts
21-Mar-20 16:25 35.846920 -115.570457 1 13038ft 308kts
21-Mar-20 16:26 35.932542 -115.564049 12 13025ft 307kts
21-Mar-20 16:26 35.987129 -115.511982 62 12392ft 307kts
21-Mar-20 16:28 36.023198 -115.399780 71 11131ft 286kts
21-Mar-20 16:29 36.026339 -115.306340 96 10228ft 273kts
21-Mar-20 16:29 36.020520 -115.228854 95 9303ft 270kts
21-Mar-20 16:30 36.019609 -115.136618 87 8148ft 252kts
21-Mar-20 16:31 36.023267 -115.051086 88 6784ft 236kts
21-Mar-20 16:32 36.044414 -114.986730 5 5262ft 205kts
21-Mar-20 16:33 36.073672 -115.031125 271 3880ft 182kts
21-Mar-20 16:34 36.073804 -115.089517 269 2754ft 157kts
21-Mar-20 16:35 36.073648 -115.139293 269 2122ft 100kts
21-Mar-20 16:36 36.075284 -115.151367 334 2122ft 0kts
21-Mar-20 16:37 36.077289 -115.152502 335 2122ft 19kts
21-Mar-20 16:38 36.077979 -115.150671 92 2122ft 21kts
21-Mar-20 16:39 36.079888 -115.147180 56 2122ft 4kts
21-Mar-20 16:40 36.079924 -115.147115 55 2122ft 0kts

Navigation Log

Ident Type
Flight plan parsing failed, navigation log unavailable